createdAt,value
2023-03-06T00:00:50.040Z,1.84
2023-03-06T00:05:51.497Z,1.78
2023-03-06T00:10:53.596Z,1.72
2023-03-06T00:15:58.839Z,1.72
2023-03-06T00:21:00.412Z,1.71
2023-03-06T00:26:02.076Z,1.58
2023-03-06T00:31:04.150Z,1.63
2023-03-06T00:36:06.327Z,1.63
2023-03-06T00:41:10.515Z,1.65
2023-03-06T00:46:12.044Z,1.58
2023-03-06T00:51:14.116Z,1.64
2023-03-06T00:56:15.660Z,1.67
2023-03-06T01:01:17.276Z,1.69
2023-03-06T01:06:18.825Z,1.53
2023-03-06T01:11:20.472Z,1.54
2023-03-06T01:16:22.259Z,1.51
2023-03-06T01:21:23.712Z,1.51
2023-03-06T01:26:25.230Z,1.39
2023-03-06T01:31:26.844Z,1.32
2023-03-06T01:36:28.487Z,1.36
2023-03-06T01:41:30.234Z,1.50
2023-03-06T01:46:41.805Z,1.41
2023-03-06T01:52:07.363Z,1.27
2023-03-06T01:57:14.805Z,1.05
2023-03-06T02:02:16.448Z,1.01
2023-03-06T02:07:20.273Z,0.93
2023-03-06T02:12:22.115Z,1.04
2023-03-06T02:17:24.297Z,1.14
2023-03-06T02:22:36.083Z,1.25
2023-03-06T02:27:37.718Z,1.46
2023-03-06T02:32:39.177Z,1.43
2023-03-06T02:37:40.953Z,1.52
2023-03-06T02:42:50.666Z,1.58
2023-03-06T02:47:52.100Z,1.38
2023-03-06T02:52:53.568Z,1.27
2023-03-06T02:57:55.028Z,1.31
2023-03-06T03:02:56.711Z,1.39
2023-03-06T03:07:58.621Z,1.43
2023-03-06T03:13:00.110Z,1.43
2023-03-06T03:18:01.591Z,1.58
2023-03-06T03:23:03.712Z,1.58
2023-03-06T03:28:05.169Z,1.55
2023-03-06T03:33:07.075Z,1.47
2023-03-06T03:38:08.595Z,1.49
2023-03-06T03:43:10.052Z,1.57
2023-03-06T03:48:11.974Z,1.42
2023-03-06T03:53:13.721Z,1.32
2023-03-06T03:58:15.701Z,1.33
2023-03-06T04:03:17.310Z,1.50
2023-03-06T04:08:18.707Z,1.37
2023-03-06T04:13:22.255Z,1.39
2023-03-06T04:18:24.013Z,1.41
2023-03-06T04:23:26.343Z,1.27
2023-03-06T04:28:27.799Z,1.12
2023-03-06T04:33:29.302Z,1.15
2023-03-06T04:38:30.945Z,1.26
2023-03-06T04:43:32.469Z,1.20
2023-03-06T04:48:36.623Z,1.25
2023-03-06T04:53:38.149Z,1.13
2023-03-06T04:58:39.631Z,1.19
2023-03-06T05:03:41.095Z,1.34
2023-03-06T05:08:42.550Z,1.49
2023-03-06T05:13:44.123Z,1.64
2023-03-06T05:18:45.630Z,1.85
2023-03-06T05:23:47.570Z,1.83
2023-03-06T05:28:49.049Z,1.94
2023-03-06T05:33:50.457Z,1.85
2023-03-06T05:38:52.011Z,2.03
2023-03-06T05:43:53.677Z,2.13
2023-03-06T05:48:56.198Z,2.39
2023-03-06T05:53:57.953Z,2.54
2023-03-06T05:58:59.387Z,2.56
2023-03-06T06:04:00.831Z,2.61
2023-03-06T06:09:02.228Z,2.69
2023-03-06T06:14:03.661Z,2.82
2023-03-06T06:19:05.115Z,2.67
2023-03-06T06:24:06.773Z,2.74
2023-03-06T06:29:08.561Z,2.91
2023-03-06T06:34:11.009Z,3.13
2023-03-06T06:39:16.138Z,3.08
2023-03-06T06:44:18.466Z,3.19
2023-03-06T06:49:19.955Z,3.12
2023-03-06T06:54:22.323Z,3.23
2023-03-06T06:59:23.994Z,3.37
2023-03-06T07:04:25.454Z,3.46
2023-03-06T07:09:26.955Z,3.53
2023-03-06T07:14:28.405Z,3.45
2023-03-06T07:19:29.851Z,3.52
2023-03-06T07:24:31.331Z,3.54
2023-03-06T07:29:34.438Z,3.54
2023-03-06T07:34:35.918Z,3.51
2023-03-06T07:39:37.361Z,3.52
2023-03-06T07:44:38.891Z,3.54
2023-03-06T07:49:40.316Z,3.29
2023-03-06T07:54:42.043Z,3.58
2023-03-06T07:59:43.517Z,3.87
2023-03-06T08:04:44.999Z,4.16
2023-03-06T08:09:46.438Z,4.37
2023-03-06T08:14:47.917Z,4.26
2023-03-06T08:19:49.367Z,4.12
2023-03-06T08:24:55.003Z,4.41
2023-03-06T08:29:56.482Z,4.43
2023-03-06T08:34:57.969Z,4.39
2023-03-06T08:39:59.527Z,4.47
2023-03-06T08:45:01.004Z,4.61
2023-03-06T08:50:02.515Z,4.68
2023-03-06T08:55:04.193Z,4.68
2023-03-06T09:00:09.063Z,4.83
2023-03-06T09:05:11.076Z,4.48
2023-03-06T09:10:17.841Z,4.79
2023-03-06T09:15:21.114Z,4.72
2023-03-06T09:20:22.801Z,5.02
2023-03-06T09:25:25.082Z,5.07
2023-03-06T09:30:26.548Z,5.31
2023-03-06T09:35:28.077Z,5.39
2023-03-06T09:40:55.741Z,5.94
2023-03-06T09:45:59.912Z,5.70
2023-03-06T09:51:10.662Z,5.63
2023-03-06T09:56:20.342Z,5.96
2023-03-06T10:01:29.549Z,6.26
2023-03-06T10:06:36.817Z,6.33
2023-03-06T10:11:46.847Z,6.52
2023-03-06T10:16:48.529Z,6.77
2023-03-06T10:21:58.508Z,7.00
2023-03-06T10:27:12.703Z,6.89
2023-03-06T10:32:34.277Z,6.79
2023-03-06T10:37:41.124Z,6.78
2023-03-06T10:42:42.626Z,6.73
2023-03-06T10:47:44.187Z,6.75
2023-03-06T10:52:57.865Z,6.72
2023-03-06T10:58:18.376Z,6.95
2023-03-06T11:03:24.481Z,6.99
2023-03-06T11:08:26.029Z,7.01
2023-03-06T11:13:30.617Z,7.03
2023-03-06T11:18:38.440Z,6.45
2023-03-06T11:23:47.206Z,7.01
2023-03-06T11:29:08.933Z,7.01
2023-03-06T11:34:51.673Z,7.23
2023-03-06T11:40:02.826Z,6.96
2023-03-06T11:45:04.399Z,7.07
2023-03-06T11:50:24.723Z,7.37
2023-03-06T11:55:44.183Z,7.24
2023-03-06T12:01:14.620Z,7.42
2023-03-06T12:06:45.826Z,7.12
2023-03-06T12:12:20.859Z,6.56
2023-03-06T12:17:28.248Z,7.07
2023-03-06T12:22:53.384Z,6.64
2023-03-06T12:28:23.122Z,6.54
2023-03-06T12:33:30.538Z,6.91
2023-03-06T12:39:01.206Z,7.20
2023-03-06T12:44:05.631Z,7.07
2023-03-06T12:49:31.492Z,7.14
2023-03-06T12:54:38.635Z,7.11
2023-03-06T12:59:48.583Z,7.40
2023-03-06T13:05:28.688Z,7.06
2023-03-06T13:10:35.852Z,7.06
2023-03-06T13:15:39.048Z,6.90
2023-03-06T13:20:42.903Z,7.00
2023-03-06T13:25:50.363Z,6.88
2023-03-06T13:30:53.277Z,6.19
2023-03-06T13:35:56.890Z,6.46
2023-03-06T13:41:23.011Z,6.50
2023-03-06T13:46:35.060Z,6.51
2023-03-06T13:52:10.516Z,6.50
2023-03-06T13:57:21.290Z,5.74
2023-03-06T14:02:54.764Z,5.88
2023-03-06T14:08:07.508Z,5.59
2023-03-06T14:13:23.319Z,5.87
2023-03-06T14:18:47.746Z,5.80
2023-03-06T14:24:00.421Z,5.94
2023-03-06T14:29:03.123Z,6.00
2023-03-06T14:34:15.924Z,5.88
2023-03-06T14:39:43.962Z,5.89
2023-03-06T14:44:47.284Z,5.89
2023-03-06T14:50:43.818Z,6.10
2023-03-06T14:55:53.166Z,6.03
2023-03-06T15:00:56.249Z,6.18
2023-03-06T15:05:58.048Z,6.32
2023-03-06T15:11:06.092Z,6.22
2023-03-06T15:16:13.433Z,6.41
2023-03-06T15:21:18.744Z,6.10
2023-03-06T15:26:29.539Z,6.09
2023-03-06T15:31:33.026Z,5.81
2023-03-06T15:36:43.060Z,5.97
2023-03-06T15:41:44.957Z,6.19
2023-03-06T15:46:47.293Z,6.10
2023-03-06T15:51:49.940Z,5.92
2023-03-06T15:56:52.148Z,5.90
2023-03-06T16:01:54.202Z,5.77
2023-03-06T16:06:55.673Z,5.77
2023-03-06T16:11:57.265Z,5.72
2023-03-06T16:16:59.572Z,5.71
2023-03-06T16:22:01.030Z,5.70
2023-03-06T16:27:02.860Z,5.70
2023-03-06T16:32:05.433Z,5.54
2023-03-06T16:37:11.375Z,5.47
2023-03-06T16:42:12.935Z,5.50
2023-03-06T16:47:14.426Z,5.53
2023-03-06T16:52:16.272Z,5.56
2023-03-06T16:57:17.700Z,5.53
2023-03-06T17:02:19.170Z,5.56
2023-03-06T17:07:20.593Z,5.61
2023-03-06T17:12:21.998Z,5.59
2023-03-06T17:17:23.460Z,5.61
2023-03-06T17:22:25.444Z,5.61
2023-03-06T17:27:26.895Z,5.62
2023-03-06T17:32:28.830Z,5.51
2023-03-06T17:37:31.955Z,5.38
2023-03-06T17:42:35.280Z,5.31
2023-03-06T17:47:36.856Z,5.25
2023-03-06T17:52:38.974Z,5.24
2023-03-06T17:57:40.414Z,5.31
2023-03-06T18:02:41.900Z,5.13
2023-03-06T18:07:43.894Z,5.08
2023-03-06T18:12:45.466Z,5.05
2023-03-06T18:17:46.999Z,5.10
2023-03-06T18:22:48.448Z,5.07
2023-03-06T18:27:49.865Z,5.03
2023-03-06T18:32:51.322Z,5.07
2023-03-06T18:37:52.791Z,4.98
2023-03-06T18:42:54.765Z,4.92
2023-03-06T18:47:56.264Z,4.97
2023-03-06T18:52:57.747Z,4.90
2023-03-06T18:57:59.252Z,4.93
2023-03-06T19:03:00.681Z,4.96
2023-03-06T19:08:02.101Z,4.75
2023-03-06T19:13:04.628Z,4.83
2023-03-06T19:18:06.054Z,4.68
2023-03-06T19:23:08.007Z,4.74
2023-03-06T19:28:09.459Z,4.88
2023-03-06T19:33:10.869Z,4.84
2023-03-06T19:38:12.504Z,4.81
2023-03-06T19:43:13.931Z,4.67
2023-03-06T19:48:16.147Z,4.76
2023-03-06T19:53:17.684Z,4.75
2023-03-06T19:58:19.114Z,4.91
2023-03-06T20:03:20.568Z,4.85
2023-03-06T20:08:21.980Z,4.54
2023-03-06T20:13:23.650Z,4.23
2023-03-06T20:18:25.146Z,4.42
2023-03-06T20:23:27.524Z,4.39
2023-03-06T20:28:29.013Z,4.28
2023-03-06T20:33:30.427Z,4.29
2023-03-06T20:38:31.904Z,4.33
2023-03-06T20:43:33.311Z,4.22
2023-03-06T20:48:34.948Z,4.27
2023-03-06T20:53:36.628Z,4.29
2023-03-06T20:58:38.085Z,4.21
2023-03-06T21:03:39.531Z,4.27
2023-03-06T21:08:41.102Z,4.15
2023-03-06T21:13:42.898Z,4.12
2023-03-06T21:18:45.299Z,4.17
2023-03-06T21:23:48.018Z,4.21
2023-03-06T21:28:49.847Z,4.25
2023-03-06T21:33:51.747Z,4.16
2023-03-06T21:38:54.214Z,4.20
2023-03-06T21:43:57.284Z,4.22
2023-03-06T21:48:59.142Z,4.22
2023-03-06T21:54:02.013Z,4.23
2023-03-06T21:59:03.454Z,4.16
2023-03-06T22:04:04.891Z,4.14
2023-03-06T22:09:06.707Z,4.18
2023-03-06T22:14:08.266Z,4.09
2023-03-06T22:19:09.719Z,4.07
2023-03-06T22:24:11.149Z,4.06
2023-03-06T22:29:12.571Z,4.06
2023-03-06T22:34:13.990Z,4.12
2023-03-06T22:39:15.412Z,4.16
2023-03-06T22:44:19.183Z,4.02
2023-03-06T22:49:20.694Z,3.75
2023-03-06T22:54:22.232Z,3.78
2023-03-06T22:59:23.698Z,3.88
2023-03-06T23:04:25.159Z,3.89
2023-03-06T23:09:26.882Z,3.87
2023-03-06T23:14:28.383Z,3.92
2023-03-06T23:19:29.863Z,3.81
2023-03-06T23:24:34.819Z,3.81
2023-03-06T23:29:37.650Z,3.84
2023-03-06T23:34:39.124Z,3.77
2023-03-06T23:39:40.550Z,3.74
2023-03-06T23:44:42.012Z,3.69
2023-03-06T23:49:43.599Z,3.59
2023-03-06T23:54:45.041Z,3.50
2023-03-06T23:59:46.577Z,3.53
